Bryant, Wisconsin
Current Conditions -  °F | °C
As of 2:55 AM on Thursday 23 Oct 2014 (Local Time) from KAIG Reporting Station
Haze Haze  
Wind Chill: 31°   Ceiling: 200
Heat Index: 37°   Visibility: 2.5mi
Dew Point: 37°   Wind: 7mph
Humidity: 100%   Direction: 180°S
Pressure: 30.17"   Gusts: NA
Location:  45.21°N, 89.02°W
Report Text: KAIG 230755Z AUTO 18006KT 2 1/2SM BR BKN002 OVC050 03/03 A3017 RMK AO2 T00260026
Loading
Personal Weather Stations






























Interactive Weather Map New forecast layout! Learn more

10-Day Weather Forecast

Advertisements
Track Severe Weather on mobile